sensor_id;sensor_type;location;lat;lon;timestamp;temperature;humidity
20654;DHT22;21083;50.898;4.902;2022-10-04T00:01:07;13.10;99.90
20654;DHT22;21083;50.898;4.902;2022-10-04T00:03:41;13.00;99.90
20654;DHT22;21083;50.898;4.902;2022-10-04T00:06:15;13.00;99.90
20654;DHT22;21083;50.898;4.902;2022-10-04T00:08:45;13.00;99.90
20654;DHT22;21083;50.898;4.902;2022-10-04T00:11:17;13.00;99.90
20654;DHT22;21083;50.898;4.902;2022-10-04T00:13:51;13.10;99.90
20654;DHT22;21083;50.898;4.902;2022-10-04T00:16:21;13.00;99.90
20654;DHT22;21083;50.898;4.902;2022-10-04T00:19:01;13.00;99.90
20654;DHT22;21083;50.898;4.902;2022-10-04T00:24:29;13.00;99.90
20654;DHT22;21083;50.898;4.902;2022-10-04T00:27:18;13.00;99.90
20654;DHT22;21083;50.898;4.902;2022-10-04T00:30:14;13.00;99.90
20654;DHT22;21083;50.898;4.902;2022-10-04T00:33:00;12.90;99.90
20654;DHT22;21083;50.898;4.902;2022-10-04T00:35:48;12.90;99.90
20654;DHT22;21083;50.898;4.902;2022-10-04T00:38:16;12.90;99.90
20654;DHT22;21083;50.898;4.902;2022-10-04T00:40:55;12.90;99.90
20654;DHT22;21083;50.898;4.902;2022-10-04T00:43:25;12.70;99.90
20654;DHT22;21083;50.898;4.902;2022-10-04T00:45:58;12.70;99.90
20654;DHT22;21083;50.898;4.902;2022-10-04T00:48:33;12.60;99.90
20654;DHT22;21083;50.898;4.902;2022-10-04T00:51:10;12.60;99.90
20654;DHT22;21083;50.898;4.902;2022-10-04T00:54:00;12.60;99.90
20654;DHT22;21083;50.898;4.902;2022-10-04T00:56:34;12.60;99.90
20654;DHT22;21083;50.898;4.902;2022-10-04T00:59:20;12.50;99.90
20654;DHT22;21083;50.898;4.902;2022-10-04T01:01:54;12.60;99.90
20654;DHT22;21083;50.898;4.902;2022-10-04T01:04:41;12.60;99.90
20654;DHT22;21083;50.898;4.902;2022-10-04T01:07:11;12.50;99.90
20654;DHT22;21083;50.898;4.902;2022-10-04T01:09:46;12.50;99.90
20654;DHT22;21083;50.898;4.902;2022-10-04T01:12:21;12.50;99.90
20654;DHT22;21083;50.898;4.902;2022-10-04T01:14:58;12.50;99.90
20654;DHT22;21083;50.898;4.902;2022-10-04T01:17:26;12.50;99.90
20654;DHT22;21083;50.898;4.902;2022-10-04T01:19:54;12.50;99.90
20654;DHT22;21083;50.898;4.902;2022-10-04T01:22:39;12.50;99.90
20654;DHT22;21083;50.898;4.902;2022-10-04T01:25:07;12.50;99.90
20654;DHT22;21083;50.898;4.902;2022-10-04T01:27:36;12.50;99.90
20654;DHT22;21083;50.898;4.902;2022-10-04T01:30:08;12.40;99.90
20654;DHT22;21083;50.898;4.902;2022-10-04T01:32:37;12.40;99.90
20654;DHT22;21083;50.898;4.902;2022-10-04T01:35:06;12.40;99.90
20654;DHT22;21083;50.898;4.902;2022-10-04T01:37:35;12.40;99.90
20654;DHT22;21083;50.898;4.902;2022-10-04T01:40:05;12.40;99.90
20654;DHT22;21083;50.898;4.902;2022-10-04T01:42:37;12.40;99.90
20654;DHT22;21083;50.898;4.902;2022-10-04T01:45:10;12.30;99.90
20654;DHT22;21083;50.898;4.902;2022-10-04T01:47:42;12.40;99.90
20654;DHT22;21083;50.898;4.902;2022-10-04T01:50:14;12.30;99.90
20654;DHT22;21083;50.898;4.902;2022-10-04T01:52:47;12.30;99.90
20654;DHT22;21083;50.898;4.902;2022-10-04T01:55:18;12.30;99.90
20654;DHT22;21083;50.898;4.902;2022-10-04T01:57:48;12.20;99.90
20654;DHT22;21083;50.898;4.902;2022-10-04T02:00:20;12.20;99.90
20654;DHT22;21083;50.898;4.902;2022-10-04T02:02:52;12.20;99.90
20654;DHT22;21083;50.898;4.902;2022-10-04T02:05:29;12.20;99.90
20654;DHT22;21083;50.898;4.902;2022-10-04T02:08:01;12.20;99.90
20654;DHT22;21083;50.898;4.902;2022-10-04T02:10:32;12.20;99.90
20654;DHT22;21083;50.898;4.902;2022-10-04T02:13:01;12.20;99.90
20654;DHT22;21083;50.898;4.902;2022-10-04T02:15:31;12.10;99.90
20654;DHT22;21083;50.898;4.902;2022-10-04T02:17:58;12.10;99.90
20654;DHT22;21083;50.898;4.902;2022-10-04T02:20:26;12.10;99.90
20654;DHT22;21083;50.898;4.902;2022-10-04T02:22:55;12.10;99.90
20654;DHT22;21083;50.898;4.902;2022-10-04T02:25:25;12.10;99.90
20654;DHT22;21083;50.898;4.902;2022-10-04T02:27:52;12.10;99.90
20654;DHT22;21083;50.898;4.902;2022-10-04T02:30:19;12.10;99.90
20654;DHT22;21083;50.898;4.902;2022-10-04T02:32:46;12.10;99.90
20654;DHT22;21083;50.898;4.902;2022-10-04T02:35:27;12.00;99.90
20654;DHT22;21083;50.898;4.902;2022-10-04T02:38:06;12.00;99.90
20654;DHT22;21083;50.898;4.902;2022-10-04T02:40:39;12.00;99.90
20654;DHT22;21083;50.898;4.902;2022-10-04T02:43:13;11.90;99.90
20654;DHT22;21083;50.898;4.902;2022-10-04T02:45:47;11.90;99.90
20654;DHT22;21083;50.898;4.902;2022-10-04T02:48:27;11.80;99.90
20654;DHT22;21083;50.898;4.902;2022-10-04T02:50:58;11.80;99.90
20654;DHT22;21083;50.898;4.902;2022-10-04T02:53:41;11.80;99.90
20654;DHT22;21083;50.898;4.902;2022-10-04T02:56:12;11.80;99.90
20654;DHT22;21083;50.898;4.902;2022-10-04T02:58:39;11.80;99.90
20654;DHT22;21083;50.898;4.902;2022-10-04T03:01:15;11.70;99.90
20654;DHT22;21083;50.898;4.902;2022-10-04T03:03:45;11.70;99.90
20654;DHT22;21083;50.898;4.902;2022-10-04T03:06:15;11.70;99.90
20654;DHT22;21083;50.898;4.902;2022-10-04T03:08:46;11.70;99.90
20654;DHT22;21083;50.898;4.902;2022-10-04T03:11:15;11.70;99.90
20654;DHT22;21083;50.898;4.902;2022-10-04T03:13:46;11.70;99.90
20654;DHT22;21083;50.898;4.902;2022-10-04T03:16:14;11.70;99.90
20654;DHT22;21083;50.898;4.902;2022-10-04T03:18:42;11.70;99.90
20654;DHT22;21083;50.898;4.902;2022-10-04T03:21:12;11.60;99.90
20654;DHT22;21083;50.898;4.902;2022-10-04T03:23:41;11.60;99.90
20654;DHT22;21083;50.898;4.902;2022-10-04T03:26:18;11.60;99.90
20654;DHT22;21083;50.898;4.902;2022-10-04T03:28:46;11.60;99.90
20654;DHT22;21083;50.898;4.902;2022-10-04T03:31:14;11.50;99.90
20654;DHT22;21083;50.898;4.902;2022-10-04T03:33:42;11.50;99.90
20654;DHT22;21083;50.898;4.902;2022-10-04T03:36:12;11.50;99.90
20654;DHT22;21083;50.898;4.902;2022-10-04T03:38:41;11.40;99.90
20654;DHT22;21083;50.898;4.902;2022-10-04T03:41:10;11.30;99.90
20654;DHT22;21083;50.898;4.902;2022-10-04T03:43:43;11.40;99.90
20654;DHT22;21083;50.898;4.902;2022-10-04T03:46:11;11.40;99.90
20654;DHT22;21083;50.898;4.902;2022-10-04T03:48:41;11.50;99.90
20654;DHT22;21083;50.898;4.902;2022-10-04T03:51:12;11.50;99.90
20654;DHT22;21083;50.898;4.902;2022-10-04T03:53:42;11.50;99.90
20654;DHT22;21083;50.898;4.902;2022-10-04T03:56:11;11.40;99.90
20654;DHT22;21083;50.898;4.902;2022-10-04T03:58:40;11.40;99.90
20654;DHT22;21083;50.898;4.902;2022-10-04T04:01:13;11.30;99.90
20654;DHT22;21083;50.898;4.902;2022-10-04T04:03:52;11.30;99.90
20654;DHT22;21083;50.898;4.902;2022-10-04T04:06:20;11.30;99.90
20654;DHT22;21083;50.898;4.902;2022-10-04T04:08:51;11.30;99.90
20654;DHT22;21083;50.898;4.902;2022-10-04T04:11:22;11.20;99.90
20654;DHT22;21083;50.898;4.902;2022-10-04T04:13:55;11.10;99.90
20654;DHT22;21083;50.898;4.902;2022-10-04T04:16:24;11.20;99.90
20654;DHT22;21083;50.898;4.902;2022-10-04T04:18:52;11.20;99.90
20654;DHT22;21083;50.898;4.902;2022-10-04T04:21:21;11.20;99.90
20654;DHT22;21083;50.898;4.902;2022-10-04T04:23:52;11.20;99.90
20654;DHT22;21083;50.898;4.902;2022-10-04T04:26:27;11.20;99.90
20654;DHT22;21083;50.898;4.902;2022-10-04T04:29:02;11.20;99.90
20654;DHT22;21083;50.898;4.902;2022-10-04T04:31:34;11.10;99.90
20654;DHT22;21083;50.898;4.902;2022-10-04T04:34:04;11.10;99.90
20654;DHT22;21083;50.898;4.902;2022-10-04T04:36:40;11.10;99.90
20654;DHT22;21083;50.898;4.902;2022-10-04T04:39:11;11.10;99.90
20654;DHT22;21083;50.898;4.902;2022-10-04T04:41:57;11.10;99.90
20654;DHT22;21083;50.898;4.902;2022-10-04T04:44:26;11.10;99.90
20654;DHT22;21083;50.898;4.902;2022-10-04T04:46:53;11.00;99.90
20654;DHT22;21083;50.898;4.902;2022-10-04T04:49:21;11.10;99.90
20654;DHT22;21083;50.898;4.902;2022-10-04T04:51:50;11.00;99.90
20654;DHT22;21083;50.898;4.902;2022-10-04T04:54:19;11.10;99.90
20654;DHT22;21083;50.898;4.902;2022-10-04T04:56:49;11.00;99.90
20654;DHT22;21083;50.898;4.902;2022-10-04T04:59:18;11.10;99.90
20654;DHT22;21083;50.898;4.902;2022-10-04T05:01:48;10.90;99.90
20654;DHT22;21083;50.898;4.902;2022-10-04T05:04:18;11.00;99.90
20654;DHT22;21083;50.898;4.902;2022-10-04T05:06:47;10.90;99.90
20654;DHT22;21083;50.898;4.902;2022-10-04T05:09:22;11.00;99.90
20654;DHT22;21083;50.898;4.902;2022-10-04T05:11:51;11.00;99.90
20654;DHT22;21083;50.898;4.902;2022-10-04T05:14:19;10.90;99.90
20654;DHT22;21083;50.898;4.902;2022-10-04T05:16:51;10.90;99.90
20654;DHT22;21083;50.898;4.902;2022-10-04T05:19:21;11.00;99.90
20654;DHT22;21083;50.898;4.902;2022-10-04T05:21:51;10.90;99.90
20654;DHT22;21083;50.898;4.902;2022-10-04T05:24:21;10.90;99.90
20654;DHT22;21083;50.898;4.902;2022-10-04T05:26:50;10.90;99.90
20654;DHT22;21083;50.898;4.902;2022-10-04T05:29:20;10.80;99.90
20654;DHT22;21083;50.898;4.902;2022-10-04T05:31:56;10.70;99.90
20654;DHT22;21083;50.898;4.902;2022-10-04T05:34:30;10.70;99.90
20654;DHT22;21083;50.898;4.902;2022-10-04T05:37:26;10.70;99.90
20654;DHT22;21083;50.898;4.902;2022-10-04T05:40:19;10.90;99.90
20654;DHT22;21083;50.898;4.902;2022-10-04T05:42:50;10.80;99.90
20654;DHT22;21083;50.898;4.902;2022-10-04T05:45:21;10.70;99.90
20654;DHT22;21083;50.898;4.902;2022-10-04T05:47:52;10.70;99.90
20654;DHT22;21083;50.898;4.902;2022-10-04T05:50:25;10.70;99.90
20654;DHT22;21083;50.898;4.902;2022-10-04T05:53:14;10.70;99.90
20654;DHT22;21083;50.898;4.902;2022-10-04T05:55:49;10.70;99.90
20654;DHT22;21083;50.898;4.902;2022-10-04T05:58:33;10.60;99.90
20654;DHT22;21083;50.898;4.902;2022-10-04T06:01:17;10.60;99.90
20654;DHT22;21083;50.898;4.902;2022-10-04T06:04:03;10.60;99.90
20654;DHT22;21083;50.898;4.902;2022-10-04T06:06:39;10.60;99.90
20654;DHT22;21083;50.898;4.902;2022-10-04T06:09:12;10.70;99.90
20654;DHT22;21083;50.898;4.902;2022-10-04T06:11:51;10.60;99.90
20654;DHT22;21083;50.898;4.902;2022-10-04T06:14:55;10.60;99.90
20654;DHT22;21083;50.898;4.902;2022-10-04T06:17:39;10.60;99.90
20654;DHT22;21083;50.898;4.902;2022-10-04T06:20:40;10.50;99.90
20654;DHT22;21083;50.898;4.902;2022-10-04T06:23:13;10.50;99.90
20654;DHT22;21083;50.898;4.902;2022-10-04T06:25:44;10.60;99.90
20654;DHT22;21083;50.898;4.902;2022-10-04T06:28:16;10.60;99.90
20654;DHT22;21083;50.898;4.902;2022-10-04T06:31:08;10.70;99.90
20654;DHT22;21083;50.898;4.902;2022-10-04T06:34:04;10.70;99.90
20654;DHT22;21083;50.898;4.902;2022-10-04T06:37:04;10.70;99.90
20654;DHT22;21083;50.898;4.902;2022-10-04T06:40:06;10.70;99.90
20654;DHT22;21083;50.898;4.902;2022-10-04T06:45:46;10.80;99.90
20654;DHT22;21083;50.898;4.902;2022-10-04T06:48:39;10.80;99.90
20654;DHT22;21083;50.898;4.902;2022-10-04T06:51:13;10.80;99.90
20654;DHT22;21083;50.898;4.902;2022-10-04T06:53:54;10.90;99.90
20654;DHT22;21083;50.898;4.902;2022-10-04T06:56:30;10.80;99.90
20654;DHT22;21083;50.898;4.902;2022-10-04T07:02:06;10.90;99.90
20654;DHT22;21083;50.898;4.902;2022-10-04T07:04:40;10.90;99.90
20654;DHT22;21083;50.898;4.902;2022-10-04T07:07:14;10.90;99.90
20654;DHT22;21083;50.898;4.902;2022-10-04T07:10:16;10.90;99.90
20654;DHT22;21083;50.898;4.902;2022-10-04T07:12:51;10.90;99.90
20654;DHT22;21083;50.898;4.902;2022-10-04T07:15:22;10.90;99.90
20654;DHT22;21083;50.898;4.902;2022-10-04T07:17:52;10.90;99.90
20654;DHT22;21083;50.898;4.902;2022-10-04T07:20:23;10.90;99.90
20654;DHT22;21083;50.898;4.902;2022-10-04T07:22:56;10.90;99.90
20654;DHT22;21083;50.898;4.902;2022-10-04T07:25:28;11.00;99.90
20654;DHT22;21083;50.898;4.902;2022-10-04T07:27:59;11.00;99.90
20654;DHT22;21083;50.898;4.902;2022-10-04T07:30:50;11.00;99.90
20654;DHT22;21083;50.898;4.902;2022-10-04T07:33:21;11.00;99.90
20654;DHT22;21083;50.898;4.902;2022-10-04T07:35:52;11.10;99.90
20654;DHT22;21083;50.898;4.902;2022-10-04T07:38:25;11.10;99.90
20654;DHT22;21083;50.898;4.902;2022-10-04T07:41:05;11.10;99.90
20654;DHT22;21083;50.898;4.902;2022-10-04T07:43:43;11.20;99.90
20654;DHT22;21083;50.898;4.902;2022-10-04T07:46:18;11.30;99.90
20654;DHT22;21083;50.898;4.902;2022-10-04T07:48:46;11.40;99.90
20654;DHT22;21083;50.898;4.902;2022-10-04T07:51:20;11.40;99.90
20654;DHT22;21083;50.898;4.902;2022-10-04T07:53:53;11.40;99.90
20654;DHT22;21083;50.898;4.902;2022-10-04T07:56:26;11.60;99.90
20654;DHT22;21083;50.898;4.902;2022-10-04T07:59:04;11.60;99.90
20654;DHT22;21083;50.898;4.902;2022-10-04T08:01:41;11.80;99.90
20654;DHT22;21083;50.898;4.902;2022-10-04T08:04:22;11.70;99.90
20654;DHT22;21083;50.898;4.902;2022-10-04T08:06:57;11.70;99.90
20654;DHT22;21083;50.898;4.902;2022-10-04T08:09:36;11.70;99.90
20654;DHT22;21083;50.898;4.902;2022-10-04T08:12:16;11.70;99.90
20654;DHT22;21083;50.898;4.902;2022-10-04T08:15:08;11.80;99.90
20654;DHT22;21083;50.898;4.902;2022-10-04T08:17:46;11.80;99.90
20654;DHT22;21083;50.898;4.902;2022-10-04T08:20:25;12.20;99.90
20654;DHT22;21083;50.898;4.902;2022-10-04T08:23:03;12.30;99.90
20654;DHT22;21083;50.898;4.902;2022-10-04T08:25:38;12.30;99.90
20654;DHT22;21083;50.898;4.902;2022-10-04T08:28:19;12.20;99.90
20654;DHT22;21083;50.898;4.902;2022-10-04T08:31:17;12.40;99.90
20654;DHT22;21083;50.898;4.902;2022-10-04T08:34:14;12.50;99.90
20654;DHT22;21083;50.898;4.902;2022-10-04T08:36:52;12.60;99.90
20654;DHT22;21083;50.898;4.902;2022-10-04T08:39:42;12.70;99.90
20654;DHT22;21083;50.898;4.902;2022-10-04T08:42:49;12.90;99.90
20654;DHT22;21083;50.898;4.902;2022-10-04T08:49:07;13.20;99.90
20654;DHT22;21083;50.898;4.902;2022-10-04T08:51:57;13.30;99.90
20654;DHT22;21083;50.898;4.902;2022-10-04T08:54:50;13.50;99.90
20654;DHT22;21083;50.898;4.902;2022-10-04T09:00:25;13.80;99.90
20654;DHT22;21083;50.898;4.902;2022-10-04T09:06:12;14.20;99.90
20654;DHT22;21083;50.898;4.902;2022-10-04T09:15:00;14.70;99.90
20654;DHT22;21083;50.898;4.902;2022-10-04T09:17:37;14.80;99.90
20654;DHT22;21083;50.898;4.902;2022-10-04T09:20:19;14.90;99.90
20654;DHT22;21083;50.898;4.902;2022-10-04T09:22:48;15.00;99.90
20654;DHT22;21083;50.898;4.902;2022-10-04T09:25:46;15.10;99.90
20654;DHT22;21083;50.898;4.902;2022-10-04T09:28:28;15.30;99.90
20654;DHT22;21083;50.898;4.902;2022-10-04T09:31:24;15.40;99.90
20654;DHT22;21083;50.898;4.902;2022-10-04T09:34:10;15.40;99.90
20654;DHT22;21083;50.898;4.902;2022-10-04T09:37:05;15.70;99.90
20654;DHT22;21083;50.898;4.902;2022-10-04T09:39:52;16.00;99.90
20654;DHT22;21083;50.898;4.902;2022-10-04T09:43:00;16.20;99.90
20654;DHT22;21083;50.898;4.902;2022-10-04T09:45:53;16.20;99.90
20654;DHT22;21083;50.898;4.902;2022-10-04T09:48:27;16.50;99.90
20654;DHT22;21083;50.898;4.902;2022-10-04T09:51:16;16.50;99.90
20654;DHT22;21083;50.898;4.902;2022-10-04T09:53:57;16.50;99.90
20654;DHT22;21083;50.898;4.902;2022-10-04T09:57:04;16.70;99.90
20654;DHT22;21083;50.898;4.902;2022-10-04T10:00:05;16.80;99.90
20654;DHT22;21083;50.898;4.902;2022-10-04T10:06:18;17.00;99.90
20654;DHT22;21083;50.898;4.902;2022-10-04T10:09:01;16.90;99.90
20654;DHT22;21083;50.898;4.902;2022-10-04T10:11:42;16.80;99.90
20654;DHT22;21083;50.898;4.902;2022-10-04T10:14:58;16.90;99.90
20654;DHT22;21083;50.898;4.902;2022-10-04T10:17:33;16.90;99.90
20654;DHT22;21083;50.898;4.902;2022-10-04T10:20:32;17.20;99.90
20654;DHT22;21083;50.898;4.902;2022-10-04T10:23:40;17.60;99.90
20654;DHT22;21083;50.898;4.902;2022-10-04T10:26:40;17.60;99.90
20654;DHT22;21083;50.898;4.902;2022-10-04T10:29:30;17.60;99.90
20654;DHT22;21083;50.898;4.902;2022-10-04T10:32:23;17.80;99.90
20654;DHT22;21083;50.898;4.902;2022-10-04T10:41:12;18.20;99.90
20654;DHT22;21083;50.898;4.902;2022-10-04T10:43:59;18.30;99.90
20654;DHT22;21083;50.898;4.902;2022-10-04T10:46:53;18.30;99.90
20654;DHT22;21083;50.898;4.902;2022-10-04T10:49:41;18.20;99.90
20654;DHT22;21083;50.898;4.902;2022-10-04T10:52:31;18.30;99.90
20654;DHT22;21083;50.898;4.902;2022-10-04T10:55:30;18.30;99.90
20654;DHT22;21083;50.898;4.902;2022-10-04T11:04:32;18.80;99.90
20654;DHT22;21083;50.898;4.902;2022-10-04T11:07:31;18.70;99.90
20654;DHT22;21083;50.898;4.902;2022-10-04T11:13:21;18.80;99.90
20654;DHT22;21083;50.898;4.902;2022-10-04T11:16:18;18.50;99.90
20654;DHT22;21083;50.898;4.902;2022-10-04T11:19:31;18.40;99.90
20654;DHT22;21083;50.898;4.902;2022-10-04T11:22:28;18.90;99.90
20654;DHT22;21083;50.898;4.902;2022-10-04T11:25:22;19.30;99.90
20654;DHT22;21083;50.898;4.902;2022-10-04T11:27:58;19.60;99.90
20654;DHT22;21083;50.898;4.902;2022-10-04T11:30:38;19.40;99.90
20654;DHT22;21083;50.898;4.902;2022-10-04T11:33:41;19.60;99.90
20654;DHT22;21083;50.898;4.902;2022-10-04T11:36:34;20.00;99.90
20654;DHT22;21083;50.898;4.902;2022-10-04T11:42:23;20.90;99.90
20654;DHT22;21083;50.898;4.902;2022-10-04T11:45:12;20.80;99.90
20654;DHT22;21083;50.898;4.902;2022-10-04T11:47:54;20.90;99.90
20654;DHT22;21083;50.898;4.902;2022-10-04T11:50:36;20.90;99.90
20654;DHT22;21083;50.898;4.902;2022-10-04T11:53:41;20.40;99.90
20654;DHT22;21083;50.898;4.902;2022-10-04T11:56:25;20.70;99.90
20654;DHT22;21083;50.898;4.902;2022-10-04T11:59:23;21.30;99.90
20654;DHT22;21083;50.898;4.902;2022-10-04T12:02:35;21.80;99.90
20654;DHT22;21083;50.898;4.902;2022-10-04T12:05:30;21.80;99.90
20654;DHT22;21083;50.898;4.902;2022-10-04T12:08:11;21.30;99.90
20654;DHT22;21083;50.898;4.902;2022-10-04T12:10:42;21.10;99.90
20654;DHT22;21083;50.898;4.902;2022-10-04T12:13:36;20.60;99.90
20654;DHT22;21083;50.898;4.902;2022-10-04T12:22:25;21.50;99.90
20654;DHT22;21083;50.898;4.902;2022-10-04T12:25:19;21.70;99.90
20654;DHT22;21083;50.898;4.902;2022-10-04T12:28:15;21.90;99.90
20654;DHT22;21083;50.898;4.902;2022-10-04T12:31:08;21.70;99.90
20654;DHT22;21083;50.898;4.902;2022-10-04T12:33:43;21.90;99.90
20654;DHT22;21083;50.898;4.902;2022-10-04T12:36:25;22.20;99.90
20654;DHT22;21083;50.898;4.902;2022-10-04T12:39:07;22.40;99.90
20654;DHT22;21083;50.898;4.902;2022-10-04T12:41:48;22.10;99.90
20654;DHT22;21083;50.898;4.902;2022-10-04T12:44:32;21.80;99.90
20654;DHT22;21083;50.898;4.902;2022-10-04T12:50:34;22.30;99.90
20654;DHT22;21083;50.898;4.902;2022-10-04T12:53:17;22.50;99.90
20654;DHT22;21083;50.898;4.902;2022-10-04T12:56:03;22.60;99.90
20654;DHT22;21083;50.898;4.902;2022-10-04T13:01:38;22.80;99.90
20654;DHT22;21083;50.898;4.902;2022-10-04T13:04:21;23.10;99.90
20654;DHT22;21083;50.898;4.902;2022-10-04T13:06:58;23.30;99.90
20654;DHT22;21083;50.898;4.902;2022-10-04T13:09:40;23.80;99.90
20654;DHT22;21083;50.898;4.902;2022-10-04T13:12:23;23.60;99.90
20654;DHT22;21083;50.898;4.902;2022-10-04T13:17:54;23.20;99.90
20654;DHT22;21083;50.898;4.902;2022-10-04T13:20:43;23.30;99.90
20654;DHT22;21083;50.898;4.902;2022-10-04T13:23:20;23.50;99.90
20654;DHT22;21083;50.898;4.902;2022-10-04T13:29:02;24.10;99.90
20654;DHT22;21083;50.898;4.902;2022-10-04T13:31:34;24.40;99.90
20654;DHT22;21083;50.898;4.902;2022-10-04T13:34:14;24.00;99.90
20654;DHT22;21083;50.898;4.902;2022-10-04T13:37:00;23.80;99.90
20654;DHT22;21083;50.898;4.902;2022-10-04T13:39:45;23.80;99.90
20654;DHT22;21083;50.898;4.902;2022-10-04T13:42:28;24.10;99.90
20654;DHT22;21083;50.898;4.902;2022-10-04T13:45:14;24.40;99.90
20654;DHT22;21083;50.898;4.902;2022-10-04T13:48:00;24.60;99.90
20654;DHT22;21083;50.898;4.902;2022-10-04T13:50:42;24.70;99.90
20654;DHT22;21083;50.898;4.902;2022-10-04T13:53:21;24.30;99.90
20654;DHT22;21083;50.898;4.902;2022-10-04T13:56:17;23.70;99.90
20654;DHT22;21083;50.898;4.902;2022-10-04T13:59:16;23.50;99.90
20654;DHT22;21083;50.898;4.902;2022-10-04T14:02:11;23.40;99.90
20654;DHT22;21083;50.898;4.902;2022-10-04T14:07:49;23.50;99.90
20654;DHT22;21083;50.898;4.902;2022-10-04T14:10:42;23.70;99.90
20654;DHT22;21083;50.898;4.902;2022-10-04T14:13:31;23.70;99.90
20654;DHT22;21083;50.898;4.902;2022-10-04T14:16:24;23.50;99.90
20654;DHT22;21083;50.898;4.902;2022-10-04T14:22:49;23.20;99.90
20654;DHT22;21083;50.898;4.902;2022-10-04T14:25:46;23.30;99.90
20654;DHT22;21083;50.898;4.902;2022-10-04T14:31:45;24.40;99.90
20654;DHT22;21083;50.898;4.902;2022-10-04T14:34:38;24.50;99.90
20654;DHT22;21083;50.898;4.902;2022-10-04T14:44:06;23.90;99.90
20654;DHT22;21083;50.898;4.902;2022-10-04T14:46:48;23.90;99.90
20654;DHT22;21083;50.898;4.902;2022-10-04T14:49:27;23.60;99.90
20654;DHT22;21083;50.898;4.902;2022-10-04T14:52:09;23.40;99.90
20654;DHT22;21083;50.898;4.902;2022-10-04T14:54:48;22.80;99.90
20654;DHT22;21083;50.898;4.902;2022-10-04T14:57:25;23.10;99.90
20654;DHT22;21083;50.898;4.902;2022-10-04T15:00:16;23.60;99.90
20654;DHT22;21083;50.898;4.902;2022-10-04T15:05:56;25.00;99.90
20654;DHT22;21083;50.898;4.902;2022-10-04T15:11:35;25.90;99.90
20654;DHT22;21083;50.898;4.902;2022-10-04T15:14:22;25.70;99.90
20654;DHT22;21083;50.898;4.902;2022-10-04T15:16:54;25.80;99.90
20654;DHT22;21083;50.898;4.902;2022-10-04T15:19:26;25.20;99.90
20654;DHT22;21083;50.898;4.902;2022-10-04T15:22:02;24.70;99.90
20654;DHT22;21083;50.898;4.902;2022-10-04T15:24:43;24.30;99.90
20654;DHT22;21083;50.898;4.902;2022-10-04T15:27:43;23.90;99.90
20654;DHT22;21083;50.898;4.902;2022-10-04T15:30:20;23.30;99.90
20654;DHT22;21083;50.898;4.902;2022-10-04T15:32:52;22.60;99.90
20654;DHT22;21083;50.898;4.902;2022-10-04T15:35:29;22.40;99.90
20654;DHT22;21083;50.898;4.902;2022-10-04T15:38:02;22.10;99.90
20654;DHT22;21083;50.898;4.902;2022-10-04T15:40:40;21.50;99.90
20654;DHT22;21083;50.898;4.902;2022-10-04T15:43:23;21.20;99.90
20654;DHT22;21083;50.898;4.902;2022-10-04T15:48:55;21.10;99.90
20654;DHT22;21083;50.898;4.902;2022-10-04T15:51:41;21.10;99.90
20654;DHT22;21083;50.898;4.902;2022-10-04T15:54:34;20.90;99.90
20654;DHT22;21083;50.898;4.902;2022-10-04T15:57:17;20.80;99.90
20654;DHT22;21083;50.898;4.902;2022-10-04T15:59:51;20.80;99.90
20654;DHT22;21083;50.898;4.902;2022-10-04T16:05:24;20.80;99.90
20654;DHT22;21083;50.898;4.902;2022-10-04T16:08:25;20.70;99.90
20654;DHT22;21083;50.898;4.902;2022-10-04T16:11:05;20.40;99.90
20654;DHT22;21083;50.898;4.902;2022-10-04T16:13:43;20.30;99.90
20654;DHT22;21083;50.898;4.902;2022-10-04T16:22:10;20.30;99.90
20654;DHT22;21083;50.898;4.902;2022-10-04T16:24:42;20.30;99.90
20654;DHT22;21083;50.898;4.902;2022-10-04T16:30:16;20.30;99.90
20654;DHT22;21083;50.898;4.902;2022-10-04T16:36:12;19.90;99.90
20654;DHT22;21083;50.898;4.902;2022-10-04T16:38:48;19.90;99.90
20654;DHT22;21083;50.898;4.902;2022-10-04T16:41:39;19.80;99.90
20654;DHT22;21083;50.898;4.902;2022-10-04T16:44:22;19.80;99.90
20654;DHT22;21083;50.898;4.902;2022-10-04T16:46:55;19.50;99.90
20654;DHT22;21083;50.898;4.902;2022-10-04T16:49:29;19.50;99.90
20654;DHT22;21083;50.898;4.902;2022-10-04T16:52:11;19.40;99.90
20654;DHT22;21083;50.898;4.902;2022-10-04T16:55:00;19.20;99.90
20654;DHT22;21083;50.898;4.902;2022-10-04T16:57:28;19.10;99.90
20654;DHT22;21083;50.898;4.902;2022-10-04T16:59:56;18.90;99.90
20654;DHT22;21083;50.898;4.902;2022-10-04T17:02:48;19.00;99.90
20654;DHT22;21083;50.898;4.902;2022-10-04T17:05:47;19.00;99.90
20654;DHT22;21083;50.898;4.902;2022-10-04T17:08:28;18.70;99.90
20654;DHT22;21083;50.898;4.902;2022-10-04T17:11:25;18.70;99.90
20654;DHT22;21083;50.898;4.902;2022-10-04T17:13:57;18.70;99.90
20654;DHT22;21083;50.898;4.902;2022-10-04T17:16:32;18.50;99.90
20654;DHT22;21083;50.898;4.902;2022-10-04T17:19:14;18.50;99.90
20654;DHT22;21083;50.898;4.902;2022-10-04T17:21:49;18.20;99.90
20654;DHT22;21083;50.898;4.902;2022-10-04T17:24:27;18.10;99.90
20654;DHT22;21083;50.898;4.902;2022-10-04T17:27:24;18.10;99.90
20654;DHT22;21083;50.898;4.902;2022-10-04T17:30:11;18.10;99.90
20654;DHT22;21083;50.898;4.902;2022-10-04T17:33:00;18.00;99.90
20654;DHT22;21083;50.898;4.902;2022-10-04T17:36:09;18.10;99.90
20654;DHT22;21083;50.898;4.902;2022-10-04T17:38:44;17.90;99.90
20654;DHT22;21083;50.898;4.902;2022-10-04T17:41:18;18.00;99.90
20654;DHT22;21083;50.898;4.902;2022-10-04T17:46:58;17.90;99.90
20654;DHT22;21083;50.898;4.902;2022-10-04T17:49:35;17.70;99.90
20654;DHT22;21083;50.898;4.902;2022-10-04T17:52:26;17.40;99.90
20654;DHT22;21083;50.898;4.902;2022-10-04T17:55:14;17.30;99.90
20654;DHT22;21083;50.898;4.902;2022-10-04T17:57:47;17.30;99.90
20654;DHT22;21083;50.898;4.902;2022-10-04T18:00:18;17.20;99.90
20654;DHT22;21083;50.898;4.902;2022-10-04T18:03:09;17.20;99.90
20654;DHT22;21083;50.898;4.902;2022-10-04T18:05:51;17.20;99.90
20654;DHT22;21083;50.898;4.902;2022-10-04T18:08:28;17.30;99.90
20654;DHT22;21083;50.898;4.902;2022-10-04T18:11:01;17.20;99.90
20654;DHT22;21083;50.898;4.902;2022-10-04T18:13:31;17.20;99.90
20654;DHT22;21083;50.898;4.902;2022-10-04T18:16:08;17.20;99.90
20654;DHT22;21083;50.898;4.902;2022-10-04T18:18:38;17.30;99.90
20654;DHT22;21083;50.898;4.902;2022-10-04T18:21:19;17.10;99.90
20654;DHT22;21083;50.898;4.902;2022-10-04T18:23:57;17.10;99.90
20654;DHT22;21083;50.898;4.902;2022-10-04T18:26:27;17.10;99.90
20654;DHT22;21083;50.898;4.902;2022-10-04T18:28:54;17.10;99.90
20654;DHT22;21083;50.898;4.902;2022-10-04T18:31:29;17.20;99.90
20654;DHT22;21083;50.898;4.902;2022-10-04T18:34:00;17.30;99.90
20654;DHT22;21083;50.898;4.902;2022-10-04T18:36:29;17.40;99.90